createdAt,value
2023-03-26T00:00:21.585Z,68.63
2023-03-26T00:02:44.218Z,68.48
2023-03-26T00:05:09.212Z,68.07
2023-03-26T00:07:31.959Z,67.25
2023-03-26T00:09:55.854Z,67.26
2023-03-26T00:12:18.761Z,67.29
2023-03-26T00:14:41.394Z,67.03
2023-03-26T00:17:04.458Z,66.92
2023-03-26T00:19:27.923Z,66.96
2023-03-26T00:21:51.657Z,67.17
2023-03-26T00:24:17.873Z,67.39
2023-03-26T00:26:41.300Z,67.25
2023-03-26T00:29:04.349Z,67.35
2023-03-26T00:31:27.938Z,67.37
2023-03-26T00:33:55.861Z,67.58
2023-03-26T00:36:20.118Z,67.39
2023-03-26T00:38:44.265Z,67.50
2023-03-26T00:41:17.995Z,67.18
2023-03-26T00:43:41.330Z,67.17
2023-03-26T00:46:04.281Z,67.01
2023-03-26T00:48:43.883Z,66.88
2023-03-26T00:51:08.900Z,66.77
2023-03-26T00:53:32.092Z,66.87
2023-03-26T00:56:00.388Z,67.23
2023-03-26T00:58:23.220Z,66.82
2023-03-26T01:00:58.471Z,67.00
2023-03-26T01:03:27.621Z,67.36
2023-03-26T01:05:57.349Z,67.28
2023-03-26T01:08:31.378Z,67.16
2023-03-26T01:11:02.843Z,67.76
2023-03-26T01:13:25.595Z,67.64
2023-03-26T01:15:51.313Z,67.70
2023-03-26T01:18:14.192Z,67.79
2023-03-26T01:20:46.706Z,67.62
2023-03-26T01:23:09.734Z,67.87
2023-03-26T01:25:38.282Z,68.02
2023-03-26T01:28:01.148Z,68.35
2023-03-26T01:31:12.965Z,68.68
2023-03-26T01:33:41.664Z,68.65
2023-03-26T01:36:17.078Z,69.06
2023-03-26T01:39:18.834Z,69.65
2023-03-26T01:41:51.287Z,69.63
2023-03-26T01:44:25.941Z,69.82
2023-03-26T01:46:49.719Z,70.15
2023-03-26T01:49:15.417Z,70.35
2023-03-26T01:51:38.618Z,70.06
2023-03-26T01:54:04.287Z,70.18
2023-03-26T01:56:35.921Z,70.04
2023-03-26T01:59:08.753Z,69.67
2023-03-26T02:01:55.005Z,69.99
2023-03-26T02:04:37.720Z,69.75
2023-03-26T02:07:09.608Z,70.16
2023-03-26T02:09:37.953Z,69.50
2023-03-26T02:12:03.764Z,69.56
2023-03-26T02:14:30.086Z,69.52
2023-03-26T02:16:52.765Z,69.32
2023-03-26T02:19:21.542Z,69.40
2023-03-26T02:21:45.982Z,69.35
2023-03-26T02:24:09.356Z,69.50
2023-03-26T02:26:35.414Z,69.23
2023-03-26T02:29:20.623Z,68.86
2023-03-26T02:31:44.382Z,68.91
2023-03-26T02:34:07.076Z,69.29
2023-03-26T02:36:32.784Z,69.38
2023-03-26T02:39:01.688Z,69.53
2023-03-26T02:41:27.726Z,69.57
2023-03-26T02:43:54.968Z,69.49
2023-03-26T02:46:21.768Z,69.45
2023-03-26T02:48:54.727Z,69.64
2023-03-26T02:51:21.286Z,69.90
2023-03-26T02:53:55.207Z,69.83
2023-03-26T02:56:41.324Z,70.30
2023-03-26T02:59:39.550Z,70.60
2023-03-26T03:02:24.398Z,70.28
2023-03-26T03:04:49.787Z,70.42
2023-03-26T03:07:14.534Z,70.20
2023-03-26T03:09:38.202Z,70.39
2023-03-26T03:12:38.692Z,70.49
2023-03-26T03:15:01.458Z,70.64
2023-03-26T03:17:25.254Z,70.89
2023-03-26T03:19:47.926Z,71.51
2023-03-26T03:22:11.013Z,71.62
2023-03-26T03:24:34.133Z,71.43
2023-03-26T03:26:58.031Z,71.40
2023-03-26T03:29:34.342Z,71.92
2023-03-26T03:32:15.965Z,71.69
2023-03-26T03:34:42.516Z,72.54
2023-03-26T03:37:05.992Z,72.58
2023-03-26T03:39:37.678Z,72.92
2023-03-26T03:42:00.839Z,72.60
2023-03-26T03:44:23.673Z,72.91
2023-03-26T03:46:49.179Z,72.90
2023-03-26T03:49:11.991Z,72.82
2023-03-26T03:51:35.357Z,72.58
2023-03-26T03:54:08.647Z,72.25
2023-03-26T03:56:40.420Z,72.56
2023-03-26T03:59:12.899Z,72.46
2023-03-26T04:01:35.778Z,72.77
2023-03-26T04:04:03.817Z,72.76
2023-03-26T04:06:52.775Z,73.32
2023-03-26T04:09:16.069Z,73.59
2023-03-26T04:11:41.296Z,73.37
2023-03-26T04:14:22.787Z,73.30
2023-03-26T04:16:53.301Z,72.88
2023-03-26T04:19:16.310Z,72.80
2023-03-26T04:21:39.397Z,72.71
2023-03-26T04:24:02.602Z,72.88
2023-03-26T04:27:04.262Z,72.56
2023-03-26T04:29:42.947Z,73.02
2023-03-26T04:32:26.645Z,72.96
2023-03-26T04:34:50.715Z,72.48
2023-03-26T04:37:22.507Z,72.54
2023-03-26T04:39:56.051Z,72.94
2023-03-26T04:42:34.717Z,72.32
2023-03-26T04:45:05.854Z,73.08
2023-03-26T04:47:29.142Z,73.13
2023-03-26T04:49:52.135Z,72.90
2023-03-26T04:52:15.706Z,73.64
2023-03-26T04:55:38.454Z,73.71
2023-03-26T04:58:14.079Z,73.36
2023-03-26T05:00:49.746Z,73.28
2023-03-26T05:03:21.179Z,73.32
2023-03-26T05:05:44.897Z,72.60
2023-03-26T05:08:07.720Z,72.60
2023-03-26T05:10:30.859Z,71.83
2023-03-26T05:12:59.223Z,71.27
2023-03-26T05:15:29.410Z,70.34
2023-03-26T05:18:09.048Z,69.26
2023-03-26T05:20:43.565Z,65.51
2023-03-26T05:23:08.113Z,61.29
2023-03-26T05:25:39.906Z,59.23
2023-03-26T05:28:11.060Z,59.00
2023-03-26T05:30:53.416Z,59.94
2023-03-26T05:33:17.845Z,60.91
2023-03-26T05:35:49.537Z,61.43
2023-03-26T05:38:12.332Z,61.58
2023-03-26T05:40:35.104Z,61.98
2023-03-26T05:42:59.491Z,61.90
2023-03-26T05:45:31.504Z,61.78
2023-03-26T05:47:57.294Z,60.90
2023-03-26T05:50:22.135Z,60.47
2023-03-26T05:52:45.902Z,60.33
2023-03-26T05:55:27.768Z,57.91
2023-03-26T05:58:09.131Z,53.77
2023-03-26T06:01:10.320Z,50.34
2023-03-26T06:03:56.795Z,48.05
2023-03-26T06:06:23.109Z,48.71
2023-03-26T06:09:01.989Z,48.71
2023-03-26T06:11:32.388Z,49.58
2023-03-26T06:13:56.510Z,49.59
2023-03-26T06:16:26.207Z,51.77
2023-03-26T06:19:03.540Z,52.49
2023-03-26T06:21:45.051Z,52.23
2023-03-26T06:24:16.601Z,51.02
2023-03-26T06:26:57.680Z,50.40
2023-03-26T06:29:53.514Z,52.59
2023-03-26T06:32:29.538Z,56.73
2023-03-26T06:35:06.426Z,59.41
2023-03-26T06:37:29.138Z,60.10
2023-03-26T06:39:56.551Z,61.24
2023-03-26T06:43:08.927Z,60.50
2023-03-26T06:45:30.392Z,59.61
2023-03-26T06:48:31.445Z,58.39
2023-03-26T06:51:10.170Z,57.74
2023-03-26T06:53:51.631Z,54.77
2023-03-26T06:56:32.992Z,54.37
2023-03-26T06:59:09.390Z,53.23
2023-03-26T07:01:50.556Z,52.71
2023-03-26T07:04:32.176Z,55.30
2023-03-26T07:07:14.351Z,57.06
2023-03-26T07:10:00.420Z,60.34
2023-03-26T07:12:53.602Z,60.88
2023-03-26T07:15:16.612Z,62.35
2023-03-26T07:17:48.408Z,61.22
2023-03-26T07:20:17.423Z,61.29
2023-03-26T07:22:41.513Z,58.38
2023-03-26T07:25:23.507Z,55.23
2023-03-26T07:28:20.952Z,51.66
2023-03-26T07:31:30.568Z,48.27
2023-03-26T07:34:51.940Z,46.33
2023-03-26T07:37:56.214Z,44.12
2023-03-26T07:41:00.225Z,47.12
2023-03-26T07:44:19.308Z,49.20
2023-03-26T07:47:04.844Z,49.10
2023-03-26T07:49:29.488Z,49.82
2023-03-26T07:52:15.994Z,49.73
2023-03-26T07:54:50.562Z,50.33
2023-03-26T07:58:10.265Z,50.72
2023-03-26T08:01:21.995Z,50.76
2023-03-26T08:03:44.974Z,51.47
2023-03-26T08:06:36.280Z,52.14
2023-03-26T08:09:31.017Z,52.43
2023-03-26T08:12:27.729Z,51.82
2023-03-26T08:15:09.108Z,51.69
2023-03-26T08:17:48.135Z,51.16
2023-03-26T08:20:28.416Z,51.43
2023-03-26T08:22:59.538Z,51.46
2023-03-26T08:25:33.275Z,50.81
2023-03-26T08:27:58.935Z,51.06
2023-03-26T08:30:26.784Z,50.85
2023-03-26T08:32:56.360Z,51.06
2023-03-26T08:35:19.222Z,50.48
2023-03-26T08:37:45.425Z,49.60
2023-03-26T08:40:09.525Z,50.14
2023-03-26T08:43:07.332Z,50.47
2023-03-26T08:46:03.710Z,49.96
2023-03-26T08:48:51.254Z,49.07
2023-03-26T08:51:41.623Z,49.16
2023-03-26T08:54:04.476Z,48.44
2023-03-26T08:56:49.373Z,48.10
2023-03-26T08:59:39.836Z,48.38
2023-03-26T09:02:23.907Z,46.83
2023-03-26T09:04:58.448Z,46.05
2023-03-26T09:07:54.316Z,46.05
2023-03-26T09:10:41.673Z,46.41
2023-03-26T09:13:04.506Z,46.43
2023-03-26T09:15:42.418Z,47.01
2023-03-26T09:18:36.178Z,46.31
2023-03-26T09:21:22.325Z,46.77
2023-03-26T09:24:09.843Z,46.57
2023-03-26T09:27:11.338Z,47.33
2023-03-26T09:30:10.287Z,46.13
2023-03-26T09:32:54.501Z,45.26
2023-03-26T09:35:47.105Z,43.72
2023-03-26T09:38:27.713Z,43.75
2023-03-26T09:41:02.785Z,43.64
2023-03-26T09:44:09.952Z,44.92
2023-03-26T09:46:54.095Z,45.03
2023-03-26T09:49:46.251Z,43.48
2023-03-26T09:52:22.655Z,43.73
2023-03-26T09:54:46.507Z,43.58
2023-03-26T09:57:20.933Z,43.23
2023-03-26T09:59:52.016Z,42.89
2023-03-26T10:02:45.370Z,44.03
2023-03-26T10:05:47.294Z,43.74
2023-03-26T10:08:49.227Z,43.32
2023-03-26T10:11:22.709Z,42.15
2023-03-26T10:14:11.749Z,41.87
2023-03-26T10:16:41.016Z,42.60
2023-03-26T10:19:23.546Z,40.62
2023-03-26T10:22:05.119Z,41.48
2023-03-26T10:24:40.032Z,42.57
2023-03-26T10:27:08.482Z,42.84
2023-03-26T10:29:55.997Z,42.15
2023-03-26T10:32:56.350Z,40.94
2023-03-26T10:35:34.368Z,41.15
2023-03-26T10:38:16.128Z,40.85
2023-03-26T10:40:48.315Z,40.33
2023-03-26T10:43:25.859Z,40.32
2023-03-26T10:46:07.360Z,41.20
2023-03-26T10:48:35.762Z,40.80
2023-03-26T10:51:32.013Z,41.27
2023-03-26T10:54:01.771Z,39.90
2023-03-26T10:56:45.413Z,41.99
2023-03-26T10:59:13.326Z,43.00
2023-03-26T11:01:47.395Z,42.34
2023-03-26T11:04:31.122Z,41.73
2023-03-26T11:07:18.882Z,40.48
2023-03-26T11:10:08.068Z,41.45
2023-03-26T11:13:06.702Z,39.94
2023-03-26T11:15:42.905Z,39.27
2023-03-26T11:18:27.585Z,40.18
2023-03-26T11:21:18.891Z,38.80
2023-03-26T11:24:18.595Z,37.05
2023-03-26T11:26:52.933Z,36.44
2023-03-26T11:29:55.584Z,36.98
2023-03-26T11:32:27.284Z,36.59
2023-03-26T11:35:39.265Z,35.71
2023-03-26T11:38:08.071Z,36.86
2023-03-26T11:40:39.563Z,37.26
2023-03-26T11:43:06.539Z,37.11
2023-03-26T11:45:33.211Z,35.85
2023-03-26T11:48:17.127Z,35.38
2023-03-26T11:50:46.561Z,34.84
2023-03-26T11:53:16.299Z,34.75
2023-03-26T11:55:45.378Z,35.58
2023-03-26T11:58:27.879Z,37.87
2023-03-26T12:00:53.144Z,38.01
2023-03-26T12:03:16.369Z,37.40
2023-03-26T12:05:49.679Z,36.82
2023-03-26T12:08:22.388Z,37.58
2023-03-26T12:10:52.410Z,38.22
2023-03-26T12:13:21.299Z,34.61
2023-03-26T12:15:44.479Z,33.82
2023-03-26T12:18:41.118Z,32.08
2023-03-26T12:21:08.300Z,31.54
2023-03-26T12:23:58.504Z,31.64
2023-03-26T12:26:34.754Z,31.95
2023-03-26T12:29:03.538Z,32.97
2023-03-26T12:31:26.648Z,30.80
2023-03-26T12:34:13.584Z,32.75
2023-03-26T12:36:36.645Z,35.81
2023-03-26T12:39:16.731Z,35.67
2023-03-26T12:44:44.672Z,35.78
2023-03-26T12:44:49.091Z,36.28
2023-03-26T12:48:01.203Z,34.76
2023-03-26T12:50:14.685Z,34.38
2023-03-26T12:53:19.240Z,35.15
2023-03-26T12:55:53.838Z,35.45
2023-03-26T12:58:31.861Z,34.28
2023-03-26T13:01:15.976Z,33.99
2023-03-26T13:04:18.780Z,33.71
2023-03-26T13:06:59.095Z,33.38
2023-03-26T13:09:37.715Z,33.56
2023-03-26T13:12:57.996Z,34.10
2023-03-26T13:15:27.247Z,34.25
2023-03-26T13:18:07.540Z,33.48
2023-03-26T13:20:46.431Z,31.21
2023-03-26T13:23:24.056Z,30.58
2023-03-26T13:25:49.617Z,31.39
2023-03-26T13:28:22.681Z,31.24
2023-03-26T13:31:37.918Z,31.45
2023-03-26T13:34:12.688Z,31.56
2023-03-26T13:37:04.268Z,31.20
2023-03-26T13:39:50.191Z,31.65
2023-03-26T13:42:43.155Z,31.07
2023-03-26T13:45:27.350Z,30.86
2023-03-26T13:47:52.301Z,29.80
2023-03-26T13:50:25.129Z,29.23
2023-03-26T13:52:55.330Z,29.87
2023-03-26T13:55:23.709Z,30.67
2023-03-26T13:58:03.253Z,30.83
2023-03-26T14:00:34.134Z,30.83
2023-03-26T14:03:04.232Z,30.34
2023-03-26T14:05:42.666Z,31.37
2023-03-26T14:08:16.982Z,28.74
2023-03-26T14:10:54.603Z,28.38
2023-03-26T14:13:24.606Z,28.73
2023-03-26T14:15:55.387Z,28.84
2023-03-26T14:18:20.905Z,29.33
2023-03-26T14:21:16.682Z,29.36
2023-03-26T14:23:58.343Z,29.52
2023-03-26T14:26:48.381Z,30.32
2023-03-26T14:29:57.491Z,30.13
2023-03-26T14:32:35.157Z,30.35
2023-03-26T14:35:11.883Z,30.38
2023-03-26T14:37:52.945Z,30.37
2023-03-26T14:40:28.976Z,30.57
2023-03-26T14:42:53.014Z,31.36
2023-03-26T14:45:54.106Z,31.50
2023-03-26T14:48:51.952Z,32.15
2023-03-26T14:51:38.362Z,32.30
2023-03-26T14:54:08.747Z,32.31
2023-03-26T14:56:43.742Z,32.14
2023-03-26T14:59:40.322Z,32.01
2023-03-26T15:02:21.733Z,32.15
2023-03-26T15:05:08.370Z,31.51
2023-03-26T15:08:04.887Z,30.42
2023-03-26T15:11:21.055Z,31.90
2023-03-26T15:14:22.762Z,32.81
2023-03-26T15:17:16.212Z,32.86
2023-03-26T15:19:41.835Z,32.70
2023-03-26T15:22:16.426Z,32.93
2023-03-26T15:25:05.261Z,33.56
2023-03-26T15:27:52.365Z,33.77
2023-03-26T15:30:33.947Z,33.41
2023-03-26T15:33:22.756Z,33.92
2023-03-26T15:36:09.333Z,34.39
2023-03-26T15:38:32.095Z,34.94
2023-03-26T15:41:19.432Z,35.33
2023-03-26T15:44:24.893Z,35.12
2023-03-26T15:46:56.593Z,35.20
2023-03-26T15:50:20.836Z,35.28
2023-03-26T15:52:53.841Z,35.24
2023-03-26T15:55:16.837Z,35.70
2023-03-26T15:57:48.811Z,36.09
2023-03-26T16:00:26.326Z,36.36
2023-03-26T16:03:10.585Z,36.80
2023-03-26T16:05:37.350Z,36.32
2023-03-26T16:08:08.783Z,36.99
2023-03-26T16:10:44.758Z,37.54
2023-03-26T16:13:19.767Z,37.74
2023-03-26T16:15:44.025Z,38.35
2023-03-26T16:18:27.671Z,38.86
2023-03-26T16:21:32.082Z,39.01
2023-03-26T16:24:08.161Z,39.27
2023-03-26T16:26:59.507Z,40.01
2023-03-26T16:29:26.887Z,40.73
2023-03-26T16:32:05.750Z,40.96
2023-03-26T16:35:05.612Z,41.67
2023-03-26T16:37:50.068Z,42.01
2023-03-26T16:40:21.025Z,42.61
2023-03-26T16:43:17.846Z,42.34
2023-03-26T16:46:15.972Z,42.75
2023-03-26T16:49:00.007Z,43.32
2023-03-26T16:52:00.311Z,43.91
2023-03-26T16:54:36.559Z,44.06
2023-03-26T16:56:59.631Z,43.92
2023-03-26T16:59:46.912Z,44.30
2023-03-26T17:02:37.634Z,44.59
2023-03-26T17:05:12.596Z,44.84
2023-03-26T17:07:43.513Z,44.85
2023-03-26T17:10:08.904Z,45.14
2023-03-26T17:12:40.753Z,45.13
2023-03-26T17:15:27.391Z,45.50
2023-03-26T17:18:28.505Z,45.50
2023-03-26T17:21:03.581Z,45.48
2023-03-26T17:23:39.886Z,45.38
2023-03-26T17:26:42.429Z,45.53
2023-03-26T17:29:31.230Z,45.86
2023-03-26T17:32:15.138Z,45.62
2023-03-26T17:34:37.972Z,46.01
2023-03-26T17:37:04.551Z,46.07
2023-03-26T17:39:39.435Z,45.93
2023-03-26T17:42:16.412Z,46.09
2023-03-26T17:45:11.236Z,46.12
2023-03-26T17:47:45.455Z,46.25
2023-03-26T17:50:18.356Z,46.37
2023-03-26T17:52:58.262Z,46.49
2023-03-26T17:55:27.838Z,46.57
2023-03-26T17:58:03.538Z,46.32
2023-03-26T18:00:36.157Z,46.46
2023-03-26T18:03:06.477Z,46.45
2023-03-26T18:05:31.068Z,46.67
2023-03-26T18:08:16.500Z,46.79
2023-03-26T18:11:17.267Z,46.98
2023-03-26T18:14:12.251Z,46.85
2023-03-26T18:16:42.561Z,47.59
2023-03-26T18:19:19.197Z,47.30
2023-03-26T18:21:43.677Z,47.45
2023-03-26T18:24:15.676Z,47.67
2023-03-26T18:26:42.524Z,47.18
2023-03-26T18:29:25.689Z,47.82
2023-03-26T18:31:54.272Z,47.70
2023-03-26T18:34:21.091Z,48.03
2023-03-26T18:37:05.604Z,47.75
2023-03-26T18:39:29.148Z,47.33
2023-03-26T18:41:52.968Z,47.67
2023-03-26T18:44:18.740Z,47.62
2023-03-26T18:46:42.584Z,47.21
2023-03-26T18:49:07.054Z,47.32
2023-03-26T18:51:32.020Z,47.32
2023-03-26T18:54:06.726Z,47.10
2023-03-26T18:56:29.554Z,47.10
2023-03-26T18:58:52.935Z,47.00
2023-03-26T19:01:25.436Z,47.13
2023-03-26T19:03:49.900Z,46.86
2023-03-26T19:06:14.688Z,47.27
2023-03-26T19:08:39.127Z,47.21
2023-03-26T19:11:04.800Z,46.99
2023-03-26T19:13:28.471Z,47.35
2023-03-26T19:15:54.097Z,47.71
2023-03-26T19:18:21.931Z,48.21
2023-03-26T19:21:03.566Z,48.78
2023-03-26T19:23:32.343Z,48.78
2023-03-26T19:25:57.170Z,49.34
2023-03-26T19:28:24.011Z,48.75
2023-03-26T19:30:47.268Z,48.39
2023-03-26T19:33:18.718Z,48.59
2023-03-26T19:35:43.461Z,49.16
2023-03-26T19:38:27.168Z,49.34
2023-03-26T19:40:52.484Z,49.53
2023-03-26T19:43:16.008Z,49.45
2023-03-26T19:45:39.476Z,50.06
2023-03-26T19:48:45.292Z,50.21
2023-03-26T19:51:20.242Z,50.39
2023-03-26T19:53:46.844Z,50.40
2023-03-26T19:56:13.440Z,50.13
2023-03-26T19:58:37.225Z,50.14
2023-03-26T20:01:00.412Z,50.63
2023-03-26T20:03:38.184Z,50.80
2023-03-26T20:06:01.249Z,50.59
2023-03-26T20:08:27.285Z,50.85
2023-03-26T20:10:50.474Z,51.14
2023-03-26T20:13:17.765Z,51.39
2023-03-26T20:15:41.093Z,51.45
2023-03-26T20:18:04.155Z,52.20
2023-03-26T20:20:27.692Z,52.46
2023-03-26T20:22:51.779Z,52.87
2023-03-26T20:25:20.881Z,53.37
2023-03-26T20:27:44.724Z,53.63
2023-03-26T20:30:10.509Z,53.84
2023-03-26T20:32:38.581Z,53.75
2023-03-26T20:35:02.248Z,53.83
2023-03-26T20:37:25.031Z,53.66
2023-03-26T20:39:47.927Z,53.51
2023-03-26T20:42:12.482Z,53.15
2023-03-26T20:44:36.476Z,53.27
2023-03-26T20:46:59.493Z,53.43
2023-03-26T20:49:22.509Z,53.67
2023-03-26T20:51:45.755Z,53.21
2023-03-26T20:54:21.427Z,52.24
2023-03-26T20:56:45.688Z,50.51
2023-03-26T20:59:18.151Z,50.44
2023-03-26T21:01:41.589Z,50.00
2023-03-26T21:04:04.551Z,50.05
2023-03-26T21:06:27.263Z,50.24
2023-03-26T21:08:50.384Z,50.63
2023-03-26T21:11:51.775Z,51.55
2023-03-26T21:14:20.843Z,53.13
2023-03-26T21:16:43.777Z,55.24
2023-03-26T21:19:06.623Z,58.66
2023-03-26T21:21:59.555Z,62.55
2023-03-26T21:24:54.885Z,65.29
2023-03-26T21:27:45.379Z,67.72
2023-03-26T21:30:14.632Z,69.31
2023-03-26T21:32:37.744Z,71.30
2023-03-26T21:35:00.628Z,72.80
2023-03-26T21:37:23.506Z,73.69
2023-03-26T21:39:46.608Z,73.64
2023-03-26T21:42:11.697Z,71.98
2023-03-26T21:44:34.779Z,72.37
2023-03-26T21:46:57.618Z,72.60
2023-03-26T21:49:20.827Z,73.07
2023-03-26T21:51:44.653Z,73.32
2023-03-26T21:54:33.457Z,75.58
2023-03-26T21:57:12.253Z,76.97
2023-03-26T21:59:56.705Z,77.09
2023-03-26T22:02:42.388Z,77.88
2023-03-26T22:05:14.652Z,78.84
2023-03-26T22:08:00.135Z,79.32
2023-03-26T22:10:23.454Z,79.98
2023-03-26T22:12:46.183Z,81.13
2023-03-26T22:15:09.267Z,81.13
2023-03-26T22:17:32.822Z,81.91
2023-03-26T22:19:56.441Z,81.61
2023-03-26T22:22:19.352Z,81.27
2023-03-26T22:24:43.301Z,82.28
2023-03-26T22:27:07.296Z,81.79
2023-03-26T22:29:31.693Z,81.89
2023-03-26T22:31:54.635Z,82.00
2023-03-26T22:34:17.822Z,82.14
2023-03-26T22:36:40.571Z,82.28
2023-03-26T22:39:04.412Z,83.01
2023-03-26T22:41:27.495Z,83.12
2023-03-26T22:43:53.241Z,83.24
2023-03-26T22:46:16.184Z,82.99
2023-03-26T22:48:40.767Z,82.91
2023-03-26T22:51:06.419Z,83.19
2023-03-26T22:53:29.683Z,82.99
2023-03-26T22:55:52.311Z,82.47
2023-03-26T22:58:15.242Z,83.76
2023-03-26T23:00:40.000Z,83.99
2023-03-26T23:03:02.787Z,83.90
2023-03-26T23:05:25.888Z,83.58
2023-03-26T23:07:49.069Z,83.32
2023-03-26T23:10:12.997Z,84.12
2023-03-26T23:12:37.876Z,84.25
2023-03-26T23:15:05.035Z,84.15
2023-03-26T23:17:27.733Z,84.33
2023-03-26T23:19:50.765Z,83.92
2023-03-26T23:22:13.585Z,83.94
2023-03-26T23:24:37.904Z,83.92
2023-03-26T23:27:00.944Z,84.18
2023-03-26T23:29:23.836Z,84.24
2023-03-26T23:31:47.122Z,84.32
2023-03-26T23:34:11.004Z,84.64
2023-03-26T23:36:34.232Z,84.84
2023-03-26T23:38:56.993Z,84.70
2023-03-26T23:41:22.198Z,85.54
2023-03-26T23:43:54.521Z,86.63
2023-03-26T23:46:18.076Z,86.07
2023-03-26T23:48:42.249Z,84.80
2023-03-26T23:51:05.057Z,84.45
2023-03-26T23:53:34.900Z,84.40
2023-03-26T23:55:58.109Z,84.94
2023-03-26T23:58:23.118Z,84.99
